sensor_id;sensor_type;location;lat;lon;timestamp;P1;durP1;ratioP1;P2;durP2;ratioP2
31128;SDS011;17777;48.770;8.944;2023-06-19T00:00:18;3.30;;;3.00;;
31128;SDS011;17777;48.770;8.944;2023-06-19T00:02:45;3.50;;;3.20;;
31128;SDS011;17777;48.770;8.944;2023-06-19T00:05:11;3.17;;;2.88;;
31128;SDS011;17777;48.770;8.944;2023-06-19T00:07:38;4.10;;;3.70;;
31128;SDS011;17777;48.770;8.944;2023-06-19T00:10:05;3.08;;;2.88;;
31128;SDS011;17777;48.770;8.944;2023-06-19T00:12:31;3.15;;;2.90;;
31128;SDS011;17777;48.770;8.944;2023-06-19T00:14:58;3.40;;;3.10;;
31128;SDS011;17777;48.770;8.944;2023-06-19T00:17:24;4.80;;;2.80;;
31128;SDS011;17777;48.770;8.944;2023-06-19T00:19:52;5.25;;;2.83;;
31128;SDS011;17777;48.770;8.944;2023-06-19T00:22:19;3.40;;;3.10;;
31128;SDS011;17777;48.770;8.944;2023-06-19T00:24:45;3.10;;;2.90;;
31128;SDS011;17777;48.770;8.944;2023-06-19T00:27:11;3.40;;;3.10;;
31128;SDS011;17777;48.770;8.944;2023-06-19T00:29:36;3.55;;;3.20;;
31128;SDS011;17777;48.770;8.944;2023-06-19T00:32:02;5.90;;;3.30;;
31128;SDS011;17777;48.770;8.944;2023-06-19T00:34:29;3.70;;;3.40;;
31128;SDS011;17777;48.770;8.944;2023-06-19T00:36:55;3.33;;;3.00;;
31128;SDS011;17777;48.770;8.944;2023-06-19T00:39:25;3.60;;;3.30;;
31128;SDS011;17777;48.770;8.944;2023-06-19T00:41:52;4.85;;;3.13;;
31128;SDS011;17777;48.770;8.944;2023-06-19T00:44:18;3.97;;;3.58;;
31128;SDS011;17777;48.770;8.944;2023-06-19T00:46:44;10.20;;;3.47;;
31128;SDS011;17777;48.770;8.944;2023-06-19T00:49:11;3.75;;;3.15;;
31128;SDS011;17777;48.770;8.944;2023-06-19T00:51:38;3.08;;;2.88;;
31128;SDS011;17777;48.770;8.944;2023-06-19T00:54:05;3.33;;;3.05;;
31128;SDS011;17777;48.770;8.944;2023-06-19T00:56:32;3.67;;;3.38;;
31128;SDS011;17777;48.770;8.944;2023-06-19T00:58:59;6.50;;;3.15;;
31128;SDS011;17777;48.770;8.944;2023-06-19T01:01:28;3.65;;;3.30;;
31128;SDS011;17777;48.770;8.944;2023-06-19T01:03:55;3.42;;;3.13;;
31128;SDS011;17777;48.770;8.944;2023-06-19T01:06:21;3.30;;;3.00;;
31128;SDS011;17777;48.770;8.944;2023-06-19T01:08:57;3.00;;;2.80;;
31128;SDS011;17777;48.770;8.944;2023-06-19T01:11:33;2.72;;;2.50;;
31128;SDS011;17777;48.770;8.944;2023-06-19T01:14:18;2.42;;;2.22;;
31128;SDS011;17777;48.770;8.944;2023-06-19T01:16:47;2.05;;;1.85;;
31128;SDS011;17777;48.770;8.944;2023-06-19T01:19:15;1.88;;;1.77;;
31128;SDS011;17777;48.770;8.944;2023-06-19T01:21:46;2.17;;;1.88;;
31128;SDS011;17777;48.770;8.944;2023-06-19T01:24:13;3.00;;;1.90;;
31128;SDS011;17777;48.770;8.944;2023-06-19T01:26:39;2.58;;;1.65;;
31128;SDS011;17777;48.770;8.944;2023-06-19T01:29:06;1.85;;;1.67;;
31128;SDS011;17777;48.770;8.944;2023-06-19T01:31:35;2.00;;;1.90;;
31128;SDS011;17777;48.770;8.944;2023-06-19T01:34:09;1.67;;;1.58;;
31128;SDS011;17777;48.770;8.944;2023-06-19T01:36:37;1.77;;;1.67;;
31128;SDS011;17777;48.770;8.944;2023-06-19T01:39:03;2.17;;;1.73;;
31128;SDS011;17777;48.770;8.944;2023-06-19T01:41:30;1.80;;;1.65;;
31128;SDS011;17777;48.770;8.944;2023-06-19T01:43:57;4.25;;;1.70;;
31128;SDS011;17777;48.770;8.944;2023-06-19T01:46:25;4.25;;;1.73;;
31128;SDS011;17777;48.770;8.944;2023-06-19T01:48:51;1.80;;;1.55;;
31128;SDS011;17777;48.770;8.944;2023-06-19T01:51:17;1.90;;;1.80;;
31128;SDS011;17777;48.770;8.944;2023-06-19T01:53:43;2.13;;;1.80;;
31128;SDS011;17777;48.770;8.944;2023-06-19T01:56:09;1.80;;;1.60;;
31128;SDS011;17777;48.770;8.944;2023-06-19T01:58:35;1.80;;;1.70;;
31128;SDS011;17777;48.770;8.944;2023-06-19T02:01:00;1.73;;;1.63;;
31128;SDS011;17777;48.770;8.944;2023-06-19T02:03:26;3.13;;;1.50;;
31128;SDS011;17777;48.770;8.944;2023-06-19T02:05:52;1.90;;;1.80;;
31128;SDS011;17777;48.770;8.944;2023-06-19T02:08:19;1.73;;;1.63;;
31128;SDS011;17777;48.770;8.944;2023-06-19T02:10:44;2.03;;;1.27;;
31128;SDS011;17777;48.770;8.944;2023-06-19T02:13:10;1.23;;;1.10;;
31128;SDS011;17777;48.770;8.944;2023-06-19T02:15:36;2.20;;;1.67;;
31128;SDS011;17777;48.770;8.944;2023-06-19T02:18:03;3.10;;;1.60;;
31128;SDS011;17777;48.770;8.944;2023-06-19T02:20:30;1.65;;;1.55;;
31128;SDS011;17777;48.770;8.944;2023-06-19T02:22:57;2.33;;;1.73;;
31128;SDS011;17777;48.770;8.944;2023-06-19T02:25:22;1.58;;;1.48;;
31128;SDS011;17777;48.770;8.944;2023-06-19T02:27:48;1.58;;;1.48;;
31128;SDS011;17777;48.770;8.944;2023-06-19T02:30:14;1.88;;;1.70;;
31128;SDS011;17777;48.770;8.944;2023-06-19T02:32:40;1.70;;;1.60;;
31128;SDS011;17777;48.770;8.944;2023-06-19T02:35:06;1.27;;;1.20;;
31128;SDS011;17777;48.770;8.944;2023-06-19T02:37:35;1.90;;;1.80;;
31128;SDS011;17777;48.770;8.944;2023-06-19T02:40:02;1.77;;;1.50;;
31128;SDS011;17777;48.770;8.944;2023-06-19T02:42:31;1.75;;;1.15;;
31128;SDS011;17777;48.770;8.944;2023-06-19T02:44:57;1.65;;;1.55;;
31128;SDS011;17777;48.770;8.944;2023-06-19T02:47:31;1.50;;;1.40;;
31128;SDS011;17777;48.770;8.944;2023-06-19T02:50:01;2.28;;;1.38;;
31128;SDS011;17777;48.770;8.944;2023-06-19T02:52:29;1.98;;;1.50;;
31128;SDS011;17777;48.770;8.944;2023-06-19T02:54:55;1.17;;;1.10;;
31128;SDS011;17777;48.770;8.944;2023-06-19T02:57:21;1.42;;;1.33;;
31128;SDS011;17777;48.770;8.944;2023-06-19T02:59:47;1.15;;;1.10;;
31128;SDS011;17777;48.770;8.944;2023-06-19T03:02:13;1.35;;;1.25;;
31128;SDS011;17777;48.770;8.944;2023-06-19T03:04:42;1.70;;;1.40;;
31128;SDS011;17777;48.770;8.944;2023-06-19T03:07:09;1.02;;;1.02;;
31128;SDS011;17777;48.770;8.944;2023-06-19T03:09:36;2.70;;;1.40;;
31128;SDS011;17777;48.770;8.944;2023-06-19T03:12:02;1.23;;;1.13;;
31128;SDS011;17777;48.770;8.944;2023-06-19T03:14:28;1.67;;;1.10;;
31128;SDS011;17777;48.770;8.944;2023-06-19T03:16:54;1.30;;;1.20;;
31128;SDS011;17777;48.770;8.944;2023-06-19T03:19:21;1.42;;;1.33;;
31128;SDS011;17777;48.770;8.944;2023-06-19T03:21:48;2.35;;;1.10;;
31128;SDS011;17777;48.770;8.944;2023-06-19T03:24:15;1.02;;;1.02;;
31128;SDS011;17777;48.770;8.944;2023-06-19T03:26:41;0.77;;;0.77;;
31128;SDS011;17777;48.770;8.944;2023-06-19T03:29:07;1.10;;;1.02;;
31128;SDS011;17777;48.770;8.944;2023-06-19T03:31:55;1.70;;;1.15;;
31128;SDS011;17777;48.770;8.944;2023-06-19T03:34:26;1.25;;;1.15;;
31128;SDS011;17777;48.770;8.944;2023-06-19T03:36:51;1.20;;;1.10;;
31128;SDS011;17777;48.770;8.944;2023-06-19T03:39:20;1.20;;;1.10;;
31128;SDS011;17777;48.770;8.944;2023-06-19T03:41:46;1.50;;;1.40;;
31128;SDS011;17777;48.770;8.944;2023-06-19T03:44:12;1.10;;;1.10;;
31128;SDS011;17777;48.770;8.944;2023-06-19T03:46:38;1.50;;;1.40;;
31128;SDS011;17777;48.770;8.944;2023-06-19T03:49:05;1.20;;;1.10;;
31128;SDS011;17777;48.770;8.944;2023-06-19T03:51:32;1.27;;;1.17;;
31128;SDS011;17777;48.770;8.944;2023-06-19T03:53:58;1.23;;;1.13;;
31128;SDS011;17777;48.770;8.944;2023-06-19T03:56:23;1.38;;;1.27;;
31128;SDS011;17777;48.770;8.944;2023-06-19T03:58:50;1.52;;;1.33;;
31128;SDS011;17777;48.770;8.944;2023-06-19T04:01:16;1.40;;;1.30;;
31128;SDS011;17777;48.770;8.944;2023-06-19T04:03:42;1.23;;;1.13;;
31128;SDS011;17777;48.770;8.944;2023-06-19T04:06:07;1.73;;;1.10;;
31128;SDS011;17777;48.770;8.944;2023-06-19T04:08:37;1.48;;;1.38;;
31128;SDS011;17777;48.770;8.944;2023-06-19T04:11:03;1.52;;;1.35;;
31128;SDS011;17777;48.770;8.944;2023-06-19T04:13:29;1.30;;;1.20;;
31128;SDS011;17777;48.770;8.944;2023-06-19T04:15:55;1.30;;;1.20;;
31128;SDS011;17777;48.770;8.944;2023-06-19T04:18:20;1.45;;;1.35;;
31128;SDS011;17777;48.770;8.944;2023-06-19T04:20:46;1.20;;;1.10;;
31128;SDS011;17777;48.770;8.944;2023-06-19T04:23:12;1.00;;;1.00;;
31128;SDS011;17777;48.770;8.944;2023-06-19T04:25:38;1.73;;;1.17;;
31128;SDS011;17777;48.770;8.944;2023-06-19T04:28:04;1.42;;;1.30;;
31128;SDS011;17777;48.770;8.944;2023-06-19T04:30:30;1.30;;;1.13;;
31128;SDS011;17777;48.770;8.944;2023-06-19T04:32:59;1.27;;;1.17;;
31128;SDS011;17777;48.770;8.944;2023-06-19T04:35:25;1.33;;;1.23;;
31128;SDS011;17777;48.770;8.944;2023-06-19T04:37:51;1.60;;;1.40;;
31128;SDS011;17777;48.770;8.944;2023-06-19T04:40:18;1.35;;;1.25;;
31128;SDS011;17777;48.770;8.944;2023-06-19T04:42:44;1.30;;;1.20;;
31128;SDS011;17777;48.770;8.944;2023-06-19T04:45:10;1.00;;;1.00;;
31128;SDS011;17777;48.770;8.944;2023-06-19T04:47:36;1.33;;;1.23;;
31128;SDS011;17777;48.770;8.944;2023-06-19T04:50:04;3.67;;;1.23;;
31128;SDS011;17777;48.770;8.944;2023-06-19T04:52:32;1.77;;;1.30;;
31128;SDS011;17777;48.770;8.944;2023-06-19T04:54:58;1.30;;;1.20;;
31128;SDS011;17777;48.770;8.944;2023-06-19T04:57:23;1.30;;;1.20;;
31128;SDS011;17777;48.770;8.944;2023-06-19T04:59:49;1.30;;;1.10;;
31128;SDS011;17777;48.770;8.944;2023-06-19T05:02:15;1.38;;;1.15;;
31128;SDS011;17777;48.770;8.944;2023-06-19T05:04:41;1.27;;;1.17;;
31128;SDS011;17777;48.770;8.944;2023-06-19T05:07:08;1.02;;;1.00;;
31128;SDS011;17777;48.770;8.944;2023-06-19T05:09:35;1.38;;;1.27;;
31128;SDS011;17777;48.770;8.944;2023-06-19T05:12:01;1.27;;;1.17;;
31128;SDS011;17777;48.770;8.944;2023-06-19T05:14:27;1.25;;;1.15;;
31128;SDS011;17777;48.770;8.944;2023-06-19T05:16:53;1.30;;;1.00;;
31128;SDS011;17777;48.770;8.944;2023-06-19T05:19:19;1.45;;;1.25;;
31128;SDS011;17777;48.770;8.944;2023-06-19T05:21:44;1.58;;;1.30;;
31128;SDS011;17777;48.770;8.944;2023-06-19T05:24:10;1.30;;;1.20;;
31128;SDS011;17777;48.770;8.944;2023-06-19T05:26:36;1.20;;;1.10;;
31128;SDS011;17777;48.770;8.944;2023-06-19T05:29:02;1.17;;;1.08;;
31128;SDS011;17777;48.770;8.944;2023-06-19T05:31:28;1.30;;;1.00;;
31128;SDS011;17777;48.770;8.944;2023-06-19T05:33:53;1.95;;;1.50;;
31128;SDS011;17777;48.770;8.944;2023-06-19T05:36:19;1.70;;;1.50;;
31128;SDS011;17777;48.770;8.944;2023-06-19T05:38:45;1.38;;;1.27;;
31128;SDS011;17777;48.770;8.944;2023-06-19T05:41:13;1.95;;;1.20;;
31128;SDS011;17777;48.770;8.944;2023-06-19T05:43:41;1.50;;;1.40;;
31128;SDS011;17777;48.770;8.944;2023-06-19T05:46:07;1.10;;;1.00;;
31128;SDS011;17777;48.770;8.944;2023-06-19T05:48:32;1.00;;;1.00;;
31128;SDS011;17777;48.770;8.944;2023-06-19T05:50:58;1.30;;;1.20;;
31128;SDS011;17777;48.770;8.944;2023-06-19T05:53:24;3.05;;;1.23;;
31128;SDS011;17777;48.770;8.944;2023-06-19T05:55:50;1.50;;;1.40;;
31128;SDS011;17777;48.770;8.944;2023-06-19T05:58:16;1.48;;;1.38;;
31128;SDS011;17777;48.770;8.944;2023-06-19T06:00:45;2.13;;;1.35;;
31128;SDS011;17777;48.770;8.944;2023-06-19T06:03:11;1.35;;;1.25;;
31128;SDS011;17777;48.770;8.944;2023-06-19T06:05:38;1.10;;;1.00;;
31128;SDS011;17777;48.770;8.944;2023-06-19T06:08:04;1.17;;;1.13;;
31128;SDS011;17777;48.770;8.944;2023-06-19T06:10:30;1.23;;;1.13;;
31128;SDS011;17777;48.770;8.944;2023-06-19T06:12:55;1.25;;;1.15;;
31128;SDS011;17777;48.770;8.944;2023-06-19T06:15:21;2.83;;;1.27;;
31128;SDS011;17777;48.770;8.944;2023-06-19T06:17:47;1.40;;;1.20;;
31128;SDS011;17777;48.770;8.944;2023-06-19T06:20:13;2.03;;;1.25;;
31128;SDS011;17777;48.770;8.944;2023-06-19T06:22:39;1.60;;;1.10;;
31128;SDS011;17777;48.770;8.944;2023-06-19T06:25:06;1.35;;;1.13;;
31128;SDS011;17777;48.770;8.944;2023-06-19T06:27:33;2.35;;;1.20;;
31128;SDS011;17777;48.770;8.944;2023-06-19T06:29:59;5.55;;;1.30;;
31128;SDS011;17777;48.770;8.944;2023-06-19T06:32:25;1.80;;;1.20;;
31128;SDS011;17777;48.770;8.944;2023-06-19T06:34:53;3.65;;;1.30;;
31128;SDS011;17777;48.770;8.944;2023-06-19T06:37:19;3.08;;;1.10;;
31128;SDS011;17777;48.770;8.944;2023-06-19T06:39:50;3.22;;;0.93;;
31128;SDS011;17777;48.770;8.944;2023-06-19T06:42:16;1.42;;;1.20;;
31128;SDS011;17777;48.770;8.944;2023-06-19T06:44:43;2.05;;;1.30;;
31128;SDS011;17777;48.770;8.944;2023-06-19T06:47:09;1.70;;;1.23;;
31128;SDS011;17777;48.770;8.944;2023-06-19T06:49:35;1.77;;;1.15;;
31128;SDS011;17777;48.770;8.944;2023-06-19T06:52:04;2.10;;;1.10;;
31128;SDS011;17777;48.770;8.944;2023-06-19T06:54:31;2.00;;;1.20;;
31128;SDS011;17777;48.770;8.944;2023-06-19T06:56:57;1.30;;;1.20;;
31128;SDS011;17777;48.770;8.944;2023-06-19T06:59:24;1.17;;;1.10;;
31128;SDS011;17777;48.770;8.944;2023-06-19T07:01:52;1.95;;;1.15;;
31128;SDS011;17777;48.770;8.944;2023-06-19T07:04:19;1.17;;;1.08;;
31128;SDS011;17777;48.770;8.944;2023-06-19T07:06:45;1.20;;;1.00;;
31128;SDS011;17777;48.770;8.944;2023-06-19T07:09:11;0.90;;;0.90;;
31128;SDS011;17777;48.770;8.944;2023-06-19T07:11:37;1.20;;;1.17;;
31128;SDS011;17777;48.770;8.944;2023-06-19T07:14:02;1.48;;;1.38;;
31128;SDS011;17777;48.770;8.944;2023-06-19T07:16:28;1.23;;;1.13;;
31128;SDS011;17777;48.770;8.944;2023-06-19T07:18:54;1.10;;;1.00;;
31128;SDS011;17777;48.770;8.944;2023-06-19T07:21:20;1.15;;;1.10;;
31128;SDS011;17777;48.770;8.944;2023-06-19T07:23:46;1.48;;;1.02;;
31128;SDS011;17777;48.770;8.944;2023-06-19T07:26:15;6.38;;;1.15;;
31128;SDS011;17777;48.770;8.944;2023-06-19T07:28:41;1.23;;;1.13;;
31128;SDS011;17777;48.770;8.944;2023-06-19T07:31:07;1.40;;;1.30;;
31128;SDS011;17777;48.770;8.944;2023-06-19T07:33:33;1.20;;;1.10;;
31128;SDS011;17777;48.770;8.944;2023-06-19T07:36:00;0.90;;;0.88;;
31128;SDS011;17777;48.770;8.944;2023-06-19T07:38:27;1.20;;;1.15;;
31128;SDS011;17777;48.770;8.944;2023-06-19T07:40:53;1.20;;;1.10;;
31128;SDS011;17777;48.770;8.944;2023-06-19T07:43:19;0.95;;;0.90;;
31128;SDS011;17777;48.770;8.944;2023-06-19T07:45:47;0.90;;;0.90;;
31128;SDS011;17777;48.770;8.944;2023-06-19T07:48:14;1.50;;;1.30;;
31128;SDS011;17777;48.770;8.944;2023-06-19T07:50:40;0.98;;;0.88;;
31128;SDS011;17777;48.770;8.944;2023-06-19T07:53:05;1.00;;;0.88;;
31128;SDS011;17777;48.770;8.944;2023-06-19T07:55:32;2.13;;;1.08;;
31128;SDS011;17777;48.770;8.944;2023-06-19T07:57:57;1.05;;;0.93;;
31128;SDS011;17777;48.770;8.944;2023-06-19T08:00:23;0.82;;;0.82;;
31128;SDS011;17777;48.770;8.944;2023-06-19T08:02:49;0.90;;;0.90;;
31128;SDS011;17777;48.770;8.944;2023-06-19T08:05:15;1.05;;;1.05;;
31128;SDS011;17777;48.770;8.944;2023-06-19T08:07:41;0.90;;;0.90;;
31128;SDS011;17777;48.770;8.944;2023-06-19T08:10:07;0.63;;;0.63;;
31128;SDS011;17777;48.770;8.944;2023-06-19T08:12:33;0.82;;;0.80;;
31128;SDS011;17777;48.770;8.944;2023-06-19T08:14:59;0.90;;;0.90;;
31128;SDS011;17777;48.770;8.944;2023-06-19T08:17:25;1.23;;;0.90;;
31128;SDS011;17777;48.770;8.944;2023-06-19T08:19:50;0.70;;;0.70;;
31128;SDS011;17777;48.770;8.944;2023-06-19T08:22:16;0.90;;;0.90;;
31128;SDS011;17777;48.770;8.944;2023-06-19T08:24:42;0.70;;;0.70;;
31128;SDS011;17777;48.770;8.944;2023-06-19T08:27:08;0.77;;;0.77;;
31128;SDS011;17777;48.770;8.944;2023-06-19T08:29:33;2.65;;;0.90;;
31128;SDS011;17777;48.770;8.944;2023-06-19T08:31:59;1.00;;;1.00;;
31128;SDS011;17777;48.770;8.944;2023-06-19T08:34:26;1.00;;;1.00;;
31128;SDS011;17777;48.770;8.944;2023-06-19T08:36:53;0.75;;;0.75;;
31128;SDS011;17777;48.770;8.944;2023-06-19T08:39:18;0.80;;;0.77;;
31128;SDS011;17777;48.770;8.944;2023-06-19T08:41:47;1.35;;;0.90;;
31128;SDS011;17777;48.770;8.944;2023-06-19T08:44:13;0.93;;;0.90;;
31128;SDS011;17777;48.770;8.944;2023-06-19T08:46:40;0.75;;;0.75;;
31128;SDS011;17777;48.770;8.944;2023-06-19T08:49:07;0.88;;;0.85;;
31128;SDS011;17777;48.770;8.944;2023-06-19T08:51:35;0.85;;;0.80;;
31128;SDS011;17777;48.770;8.944;2023-06-19T08:54:05;0.70;;;0.70;;
31128;SDS011;17777;48.770;8.944;2023-06-19T08:56:33;0.70;;;0.70;;
31128;SDS011;17777;48.770;8.944;2023-06-19T08:59:14;0.80;;;0.80;;
31128;SDS011;17777;48.770;8.944;2023-06-19T09:01:49;0.70;;;0.70;;
31128;SDS011;17777;48.770;8.944;2023-06-19T09:04:24;10.00;;;1.80;;
31128;SDS011;17777;48.770;8.944;2023-06-19T09:06:56;0.75;;;0.75;;
31128;SDS011;17777;48.770;8.944;2023-06-19T09:09:26;2.53;;;1.10;;
31128;SDS011;17777;48.770;8.944;2023-06-19T09:12:02;1.45;;;1.10;;
31128;SDS011;17777;48.770;8.944;2023-06-19T09:14:38;0.98;;;0.98;;
31128;SDS011;17777;48.770;8.944;2023-06-19T09:17:19;1.13;;;1.10;;
31128;SDS011;17777;48.770;8.944;2023-06-19T09:19:50;1.30;;;1.20;;
31128;SDS011;17777;48.770;8.944;2023-06-19T09:22:18;1.25;;;1.15;;
31128;SDS011;17777;48.770;8.944;2023-06-19T09:24:47;1.60;;;1.20;;
31128;SDS011;17777;48.770;8.944;2023-06-19T09:27:17;1.70;;;0.95;;
31128;SDS011;17777;48.770;8.944;2023-06-19T09:29:45;0.90;;;0.90;;
31128;SDS011;17777;48.770;8.944;2023-06-19T09:32:25;1.00;;;0.90;;
31128;SDS011;17777;48.770;8.944;2023-06-19T09:34:55;0.90;;;0.90;;
31128;SDS011;17777;48.770;8.944;2023-06-19T09:37:26;0.95;;;0.95;;
31128;SDS011;17777;48.770;8.944;2023-06-19T09:40:00;0.95;;;0.95;;
31128;SDS011;17777;48.770;8.944;2023-06-19T09:42:39;1.23;;;1.13;;
31128;SDS011;17777;48.770;8.944;2023-06-19T09:45:15;1.15;;;1.05;;
31128;SDS011;17777;48.770;8.944;2023-06-19T09:47:46;1.40;;;1.30;;
31128;SDS011;17777;48.770;8.944;2023-06-19T09:50:13;1.83;;;1.30;;
31128;SDS011;17777;48.770;8.944;2023-06-19T09:52:44;1.02;;;1.02;;
31128;SDS011;17777;48.770;8.944;2023-06-19T09:55:10;2.95;;;1.10;;
31128;SDS011;17777;48.770;8.944;2023-06-19T09:57:38;1.20;;;1.00;;
31128;SDS011;17777;48.770;8.944;2023-06-19T10:00:06;1.40;;;1.08;;
31128;SDS011;17777;48.770;8.944;2023-06-19T10:02:39;1.02;;;1.00;;
31128;SDS011;17777;48.770;8.944;2023-06-19T10:05:06;0.93;;;0.93;;
31128;SDS011;17777;48.770;8.944;2023-06-19T10:07:38;0.90;;;0.90;;
31128;SDS011;17777;48.770;8.944;2023-06-19T10:10:08;1.23;;;1.13;;
31128;SDS011;17777;48.770;8.944;2023-06-19T10:15:21;2.78;;;1.17;;
31128;SDS011;17777;48.770;8.944;2023-06-19T10:17:54;2.65;;;0.93;;
31128;SDS011;17777;48.770;8.944;2023-06-19T10:20:29;1.02;;;0.82;;
31128;SDS011;17777;48.770;8.944;2023-06-19T10:23:06;1.92;;;1.30;;
31128;SDS011;17777;48.770;8.944;2023-06-19T10:26:00;1.08;;;1.08;;
31128;SDS011;17777;48.770;8.944;2023-06-19T10:28:27;1.33;;;1.15;;
31128;SDS011;17777;48.770;8.944;2023-06-19T10:31:00;1.15;;;1.05;;
31128;SDS011;17777;48.770;8.944;2023-06-19T10:33:34;1.30;;;1.20;;
31128;SDS011;17777;48.770;8.944;2023-06-19T10:36:23;1.00;;;1.00;;
31128;SDS011;17777;48.770;8.944;2023-06-19T10:38:50;1.10;;;1.10;;
31128;SDS011;17777;48.770;8.944;2023-06-19T10:41:17;2.08;;;1.10;;
31128;SDS011;17777;48.770;8.944;2023-06-19T10:44:01;1.58;;;1.42;;
31128;SDS011;17777;48.770;8.944;2023-06-19T10:46:32;0.93;;;0.93;;
31128;SDS011;17777;48.770;8.944;2023-06-19T10:49:05;1.40;;;1.30;;
31128;SDS011;17777;48.770;8.944;2023-06-19T10:51:36;1.10;;;1.00;;
31128;SDS011;17777;48.770;8.944;2023-06-19T10:54:03;1.30;;;1.20;;
31128;SDS011;17777;48.770;8.944;2023-06-19T10:56:30;1.15;;;1.05;;
31128;SDS011;17777;48.770;8.944;2023-06-19T10:59:03;1.40;;;1.30;;
31128;SDS011;17777;48.770;8.944;2023-06-19T11:01:46;1.30;;;1.20;;
31128;SDS011;17777;48.770;8.944;2023-06-19T11:04:15;2.30;;;1.20;;
31128;SDS011;17777;48.770;8.944;2023-06-19T11:06:42;2.25;;;1.30;;
31128;SDS011;17777;48.770;8.944;2023-06-19T11:09:10;1.40;;;1.30;;
31128;SDS011;17777;48.770;8.944;2023-06-19T11:11:41;1.63;;;1.40;;
31128;SDS011;17777;48.770;8.944;2023-06-19T11:14:08;2.25;;;1.48;;
31128;SDS011;17777;48.770;8.944;2023-06-19T11:16:37;1.58;;;1.38;;
31128;SDS011;17777;48.770;8.944;2023-06-19T11:19:07;1.48;;;1.38;;
31128;SDS011;17777;48.770;8.944;2023-06-19T11:21:35;1.60;;;1.50;;
31128;SDS011;17777;48.770;8.944;2023-06-19T11:24:10;1.40;;;1.30;;
31128;SDS011;17777;48.770;8.944;2023-06-19T11:26:44;1.40;;;1.30;;
31128;SDS011;17777;48.770;8.944;2023-06-19T11:29:19;0.98;;;0.98;;
31128;SDS011;17777;48.770;8.944;2023-06-19T11:32:04;1.27;;;1.23;;
31128;SDS011;17777;48.770;8.944;2023-06-19T11:34:36;2.47;;;1.27;;
31128;SDS011;17777;48.770;8.944;2023-06-19T11:37:11;1.40;;;1.30;;
31128;SDS011;17777;48.770;8.944;2023-06-19T11:39:38;2.65;;;1.27;;
31128;SDS011;17777;48.770;8.944;2023-06-19T11:42:06;1.52;;;1.33;;
31128;SDS011;17777;48.770;8.944;2023-06-19T11:44:33;0.98;;;0.98;;
31128;SDS011;17777;48.770;8.944;2023-06-19T11:47:00;1.67;;;1.33;;
31128;SDS011;17777;48.770;8.944;2023-06-19T11:49:27;1.42;;;1.23;;
31128;SDS011;17777;48.770;8.944;2023-06-19T11:52:00;1.07;;;1.07;;
31128;SDS011;17777;48.770;8.944;2023-06-19T11:54:26;1.60;;;1.50;;
31128;SDS011;17777;48.770;8.944;2023-06-19T11:56:52;1.48;;;1.38;;
31128;SDS011;17777;48.770;8.944;2023-06-19T11:59:18;1.25;;;1.15;;
31128;SDS011;17777;48.770;8.944;2023-06-19T12:01:43;1.40;;;1.30;;
31128;SDS011;17777;48.770;8.944;2023-06-19T12:04:09;1.70;;;1.50;;
31128;SDS011;17777;48.770;8.944;2023-06-19T12:06:35;1.40;;;1.25;;
31128;SDS011;17777;48.770;8.944;2023-06-19T12:09:02;1.52;;;1.42;;
31128;SDS011;17777;48.770;8.944;2023-06-19T12:11:29;1.40;;;1.30;;
31128;SDS011;17777;48.770;8.944;2023-06-19T12:13:55;1.70;;;1.40;;
31128;SDS011;17777;48.770;8.944;2023-06-19T12:16:22;1.27;;;1.17;;
31128;SDS011;17777;48.770;8.944;2023-06-19T12:18:48;1.42;;;1.33;;
31128;SDS011;17777;48.770;8.944;2023-06-19T12:21:14;1.58;;;1.48;;
31128;SDS011;17777;48.770;8.944;2023-06-19T12:23:40;1.30;;;1.20;;
31128;SDS011;17777;48.770;8.944;2023-06-19T12:26:06;1.65;;;1.50;;
31128;SDS011;17777;48.770;8.944;2023-06-19T12:28:31;1.48;;;1.38;;
31128;SDS011;17777;48.770;8.944;2023-06-19T12:30:57;1.45;;;1.35;;
31128;SDS011;17777;48.770;8.944;2023-06-19T12:33:23;1.60;;;1.50;;
31128;SDS011;17777;48.770;8.944;2023-06-19T12:35:49;1.17;;;1.10;;
31128;SDS011;17777;48.770;8.944;2023-06-19T12:38:15;1.25;;;1.15;;
31128;SDS011;17777;48.770;8.944;2023-06-19T12:40:41;1.48;;;1.13;;
31128;SDS011;17777;48.770;8.944;2023-06-19T12:43:07;1.40;;;1.30;;
31128;SDS011;17777;48.770;8.944;2023-06-19T12:45:33;1.17;;;1.13;;
31128;SDS011;17777;48.770;8.944;2023-06-19T12:47:59;1.35;;;1.10;;
31128;SDS011;17777;48.770;8.944;2023-06-19T12:50:24;1.38;;;1.27;;
31128;SDS011;17777;48.770;8.944;2023-06-19T12:52:50;1.52;;;1.42;;
31128;SDS011;17777;48.770;8.944;2023-06-19T12:55:16;1.30;;;1.20;;
31128;SDS011;17777;48.770;8.944;2023-06-19T12:57:42;1.20;;;1.20;;
31128;SDS011;17777;48.770;8.944;2023-06-19T13:00:10;1.75;;;1.52;;
31128;SDS011;17777;48.770;8.944;2023-06-19T13:02:40;1.65;;;1.30;;
31128;SDS011;17777;48.770;8.944;2023-06-19T13:05:08;1.58;;;1.35;;
31128;SDS011;17777;48.770;8.944;2023-06-19T13:07:34;1.60;;;1.50;;
31128;SDS011;17777;48.770;8.944;2023-06-19T13:10:00;1.65;;;1.30;;
31128;SDS011;17777;48.770;8.944;2023-06-19T13:12:26;1.33;;;1.23;;
31128;SDS011;17777;48.770;8.944;2023-06-19T13:14:52;1.50;;;1.40;;
31128;SDS011;17777;48.770;8.944;2023-06-19T13:17:18;2.00;;;1.70;;
31128;SDS011;17777;48.770;8.944;2023-06-19T13:19:44;1.83;;;1.42;;
31128;SDS011;17777;48.770;8.944;2023-06-19T13:22:10;2.42;;;1.58;;
31128;SDS011;17777;48.770;8.944;2023-06-19T13:24:36;1.98;;;1.50;;
31128;SDS011;17777;48.770;8.944;2023-06-19T13:27:02;1.52;;;1.13;;
31128;SDS011;17777;48.770;8.944;2023-06-19T13:29:28;1.60;;;1.50;;
31128;SDS011;17777;48.770;8.944;2023-06-19T13:31:54;1.50;;;1.40;;
31128;SDS011;17777;48.770;8.944;2023-06-19T13:34:19;1.40;;;1.30;;
31128;SDS011;17777;48.770;8.944;2023-06-19T13:36:47;1.50;;;1.40;;
31128;SDS011;17777;48.770;8.944;2023-06-19T13:39:13;1.40;;;1.30;;
31128;SDS011;17777;48.770;8.944;2023-06-19T13:41:39;2.03;;;1.40;;
31128;SDS011;17777;48.770;8.944;2023-06-19T13:44:05;1.50;;;1.40;;
31128;SDS011;17777;48.770;8.944;2023-06-19T13:46:31;1.48;;;1.38;;
31128;SDS011;17777;48.770;8.944;2023-06-19T13:48:57;1.77;;;1.48;;
31128;SDS011;17777;48.770;8.944;2023-06-19T13:51:23;1.05;;;0.95;;
31128;SDS011;17777;48.770;8.944;2023-06-19T13:53:50;1.40;;;1.30;;
31128;SDS011;17777;48.770;8.944;2023-06-19T13:56:16;3.17;;;1.45;;
31128;SDS011;17777;48.770;8.944;2023-06-19T13:58:42;1.88;;;1.50;;
31128;SDS011;17777;48.770;8.944;2023-06-19T14:01:08;1.45;;;1.30;;
31128;SDS011;17777;48.770;8.944;2023-06-19T14:03:36;1.92;;;1.30;;
31128;SDS011;17777;48.770;8.944;2023-06-19T14:06:04;1.02;;;1.02;;
31128;SDS011;17777;48.770;8.944;2023-06-19T14:08:30;1.20;;;1.10;;
31128;SDS011;17777;48.770;8.944;2023-06-19T14:10:56;1.40;;;1.30;;
31128;SDS011;17777;48.770;8.944;2023-06-19T14:13:22;1.40;;;1.20;;
31128;SDS011;17777;48.770;8.944;2023-06-19T14:15:48;1.30;;;1.20;;
31128;SDS011;17777;48.770;8.944;2023-06-19T14:18:13;1.40;;;1.30;;
31128;SDS011;17777;48.770;8.944;2023-06-19T14:20:39;2.10;;;1.52;;
31128;SDS011;17777;48.770;8.944;2023-06-19T14:23:06;1.45;;;1.35;;
31128;SDS011;17777;48.770;8.944;2023-06-19T14:25:33;1.75;;;1.30;;
31128;SDS011;17777;48.770;8.944;2023-06-19T14:27:59;2.10;;;1.40;;
31128;SDS011;17777;48.770;8.944;2023-06-19T14:30:25;1.58;;;1.48;;
31128;SDS011;17777;48.770;8.944;2023-06-19T14:32:51;2.90;;;1.73;;
31128;SDS011;17777;48.770;8.944;2023-06-19T14:35:17;1.50;;;1.40;;
31128;SDS011;17777;48.770;8.944;2023-06-19T14:37:43;1.60;;;1.50;;
31128;SDS011;17777;48.770;8.944;2023-06-19T14:40:09;3.28;;;1.52;;
31128;SDS011;17777;48.770;8.944;2023-06-19T14:42:35;1.50;;;1.40;;
31128;SDS011;17777;48.770;8.944;2023-06-19T14:45:01;1.40;;;1.30;;
31128;SDS011;17777;48.770;8.944;2023-06-19T14:47:27;1.58;;;1.48;;
31128;SDS011;17777;48.770;8.944;2023-06-19T14:49:52;1.40;;;1.30;;
31128;SDS011;17777;48.770;8.944;2023-06-19T14:52:19;4.38;;;1.13;;